Time;durP1;ratioP1;P1;durP2;ratioP2;P2;SDS_P1;SDS_P2;PMS_P1;PMS_P2;Temp;Humidity;BMP_temperature;BMP_pressure;BME280_temperature;BME280_humidity;BME280_pressure;Samples;Min_cycle;Max_cycle;Signal;HPM_P1;HPM_P2
2023/10/04 00:02:17;;;;;;;12.53;2.47;;;13.40;96.30;;;;;;4999700;28;20383;-59
2023/10/04 00:04:45;;;;;;;10.07;2.10;;;13.40;95.70;;;;;;4986852;28;20223;-60
2023/10/04 00:07:14;;;;;;;8.43;2.30;;;13.40;94.30;;;;;;5000877;28;20308;-54
2023/10/04 00:09:42;;;;;;;8.27;2.40;;;13.40;90.80;;;;;;4998857;28;20245;-60
2023/10/04 00:12:11;;;;;;;5.20;2.07;;;13.40;89.30;;;;;;4999222;28;20235;-59
2023/10/04 00:14:40;;;;;;;10.13;2.87;;;13.40;91.20;;;;;;4998204;28;20673;-59
2023/10/04 00:17:09;;;;;;;7.77;2.30;;;13.40;87.20;;;;;;4999210;28;20219;-59
2023/10/04 00:19:39;;;;;;;9.67;2.30;;;13.50;81.80;;;;;;5003626;28;20695;-59
2023/10/04 00:22:07;;;;;;;11.57;2.87;;;13.50;82.10;;;;;;5002529;28;20211;-59
2023/10/04 00:24:37;;;;;;;6.50;2.57;;;13.40;81.70;;;;;;4994934;28;20240;-59
2023/10/04 00:27:06;;;;;;;12.97;2.60;;;13.40;85.20;;;;;;5000739;28;20246;-60
2023/10/04 00:29:34;;;;;;;9.70;2.30;;;13.40;86.70;;;;;;4998237;28;20226;-60
2023/10/04 00:32:05;;;;;;;10.57;2.37;;;13.40;88.40;;;;;;5001072;28;20624;-60
2023/10/04 00:34:34;;;;;;;4.90;2.17;;;13.40;89.10;;;;;;4999358;28;20191;-59
2023/10/04 00:37:02;;;;;;;7.03;2.67;;;13.40;90.40;;;;;;5002862;28;20206;-59
2023/10/04 00:39:31;;;;;;;6.17;2.60;;;13.40;87.00;;;;;;5000994;28;20223;-60
2023/10/04 00:42:00;;;;;;;10.00;2.60;;;13.40;83.40;;;;;;4997385;28;20223;-60
2023/10/04 00:44:28;;;;;;;8.70;2.60;;;13.40;81.80;;;;;;5000003;28;20281;-60
2023/10/04 00:46:56;;;;;;;11.13;2.67;;;13.40;84.30;;;;;;4999120;28;20251;-59
2023/10/04 00:49:28;;;;;;;7.57;2.30;;;13.40;81.80;;;;;;4997524;28;20206;-59
2023/10/04 00:51:58;;;;;;;6.43;2.30;;;13.40;82.80;;;;;;4983578;28;20183;-60
2023/10/04 00:54:26;;;;;;;6.57;2.10;;;13.40;84.60;;;;;;4997085;28;20219;-60
2023/10/04 00:56:55;;;;;;;9.47;2.73;;;13.40;78.50;;;;;;4999698;28;20334;-59
2023/10/04 00:59:23;;;;;;;7.30;2.40;;;13.40;75.40;;;;;;4979582;28;20233;-60
2023/10/04 01:01:52;;;;;;;8.57;2.33;;;13.40;86.00;;;;;;4997668;28;20227;-59
2023/10/04 01:04:20;;;;;;;6.23;2.37;;;13.40;84.00;;;;;;5000193;28;20647;-59
2023/10/04 01:06:50;;;;;;;7.23;2.43;;;13.40;80.70;;;;;;4999245;28;20223;-60
2023/10/04 01:09:22;;;;;;;9.13;2.77;;;13.30;76.80;;;;;;4999906;28;20227;-61
2023/10/04 01:11:50;;;;;;;7.67;2.30;;;13.40;76.90;;;;;;5002343;28;20576;-60
2023/10/04 01:14:25;;;;;;;10.83;3.30;;;13.40;73.80;;;;;;5002471;28;20223;-59
2023/10/04 01:16:56;;;;;;;7.17;2.40;;;13.40;76.50;;;;;;5001803;28;20233;-60
2023/10/04 01:19:25;;;;;;;9.53;2.30;;;13.40;72.60;;;;;;5003495;28;20195;-59
2023/10/04 01:21:56;;;;;;;6.93;2.30;;;13.30;82.10;;;;;;5004509;28;20289;-60
2023/10/04 01:24:26;;;;;;;9.57;2.63;;;13.30;86.80;;;;;;5002444;28;20245;-60
2023/10/04 01:26:56;;;;;;;9.13;2.37;;;13.30;83.30;;;;;;5003542;28;20673;-60
2023/10/04 01:29:24;;;;;;;9.20;2.53;;;13.30;77.60;;;;;;5005139;28;21522;-60
2023/10/04 01:31:53;;;;;;;5.47;2.53;;;13.30;72.40;;;;;;5005087;28;20221;-60
2023/10/04 01:34:22;;;;;;;7.77;2.50;;;13.30;73.80;;;;;;4999414;28;20184;-59
2023/10/04 01:36:51;;;;;;;5.87;2.53;;;13.30;76.00;;;;;;5001630;28;20282;-60
2023/10/04 01:39:20;;;;;;;8.60;2.57;;;13.30;86.80;;;;;;5002594;28;20219;-60
2023/10/04 01:41:51;;;;;;;10.93;2.67;;;13.30;79.70;;;;;;5001513;28;20232;-59
2023/10/04 01:44:19;;;;;;;7.87;2.87;;;13.20;88.80;;;;;;5001733;28;20234;-59
2023/10/04 01:46:48;;;;;;;4.97;2.50;;;13.30;84.60;;;;;;5001969;28;20226;-59
2023/10/04 01:49:16;;;;;;;10.17;2.63;;;13.20;88.60;;;;;;4984603;28;20250;-58
2023/10/04 01:51:44;;;;;;;5.10;2.50;;;13.20;91.80;;;;;;5001721;28;20256;-60
2023/10/04 01:54:17;;;;;;;8.37;2.60;;;13.10;94.30;;;;;;4997035;28;20218;-60
2023/10/04 01:56:45;;;;;;;7.60;2.33;;;13.20;92.90;;;;;;4990481;28;20724;-60
2023/10/04 01:59:18;;;;;;;11.67;3.10;;;13.20;94.40;;;;;;4987389;28;21495;-59
2023/10/04 02:01:46;;;;;;;9.67;2.93;;;13.20;95.20;;;;;;4998838;28;20234;-59
2023/10/04 02:04:15;;;;;;;6.97;2.60;;;13.10;94.30;;;;;;5004279;28;20217;-58
2023/10/04 02:06:43;;;;;;;7.80;2.30;;;13.10;97.30;;;;;;5002948;28;20214;-59
2023/10/04 02:09:12;;;;;;;7.03;2.30;;;13.10;96.10;;;;;;4985811;28;20238;-60
2023/10/04 02:11:41;;;;;;;3.80;2.53;;;13.10;96.50;;;;;;4979761;28;20310;-59
2023/10/04 02:14:11;;;;;;;6.33;2.57;;;13.10;98.20;;;;;;4981673;28;20215;-59
2023/10/04 02:16:41;;;;;;;10.03;3.10;;;13.00;99.30;;;;;;4980606;28;20263;-59
2023/10/04 02:19:11;;;;;;;13.53;2.83;;;13.00;98.40;;;;;;4979477;28;20196;-60
2023/10/04 02:21:40;;;;;;;9.97;2.20;;;13.00;98.20;;;;;;4983273;28;20585;-60
2023/10/04 02:24:10;;;;;;;5.50;2.30;;;13.00;97.70;;;;;;4986117;28;20234;-60
2023/10/04 02:26:39;;;;;;;4.77;2.47;;;13.00;98.10;;;;;;4983773;28;20229;-60
2023/10/04 02:29:09;;;;;;;6.80;2.83;;;12.90;99.90;;;;;;4983459;28;20220;-59
2023/10/04 02:31:38;;;;;;;6.60;2.50;;;12.90;99.90;;;;;;4984610;28;20617;-59
2023/10/04 02:34:10;;;;;;;12.73;2.80;;;12.80;99.90;;;;;;4982923;28;20196;-60
2023/10/04 02:36:43;;;;;;;3.50;2.53;;;12.80;99.90;;;;;;4980997;28;20575;-59
2023/10/04 02:39:12;;;;;;;10.83;3.13;;;12.70;99.90;;;;;;4979964;28;20227;-59
2023/10/04 02:41:41;;;;;;;5.03;2.53;;;12.70;99.90;;;;;;4981937;28;20922;-60
2023/10/04 02:44:09;;;;;;;7.87;2.40;;;12.60;99.90;;;;;;4979138;28;20314;-60
2023/10/04 02:46:41;;;;;;;8.50;2.50;;;12.60;99.90;;;;;;4981037;28;20282;-60
2023/10/04 02:49:12;;;;;;;7.20;2.40;;;12.60;99.90;;;;;;4983796;28;20199;-60
2023/10/04 02:51:40;;;;;;;9.77;2.50;;;12.50;99.90;;;;;;4982882;28;20229;-60
2023/10/04 02:54:08;;;;;;;11.03;2.60;;;12.50;99.90;;;;;;4982295;28;20219;-60
2023/10/04 02:56:42;;;;;;;7.57;3.00;;;12.40;99.90;;;;;;4979864;28;20231;-60
2023/10/04 02:59:11;;;;;;;7.67;2.60;;;12.40;99.90;;;;;;4983046;28;20250;-60
2023/10/04 03:01:41;;;;;;;7.33;3.00;;;12.30;99.90;;;;;;4982475;28;20238;-60
2023/10/04 03:04:14;;;;;;;10.17;2.70;;;12.30;99.90;;;;;;4981753;28;20206;-60
2023/10/04 03:06:42;;;;;;;10.83;2.47;;;12.30;99.90;;;;;;4981615;28;20230;-60
2023/10/04 03:09:11;;;;;;;7.43;2.50;;;12.30;99.90;;;;;;4980587;28;20278;-60
2023/10/04 03:11:42;;;;;;;6.03;2.53;;;12.20;99.90;;;;;;4980629;28;20219;-60
2023/10/04 03:14:12;;;;;;;7.33;2.33;;;12.20;99.90;;;;;;4983821;28;20307;-59
2023/10/04 03:16:42;;;;;;;6.53;2.43;;;12.20;99.90;;;;;;4976684;28;20706;-60
2023/10/04 03:19:14;;;;;;;7.87;2.67;;;12.10;99.90;;;;;;4982289;28;20680;-60
2023/10/04 03:21:45;;;;;;;4.33;2.50;;;12.10;99.90;;;;;;4982573;28;20252;-60
2023/10/04 03:24:14;;;;;;;6.30;2.60;;;12.10;99.90;;;;;;4979535;28;20330;-60
2023/10/04 03:26:44;;;;;;;3.83;2.50;;;12.00;99.90;;;;;;4994647;28;20223;-60
2023/10/04 03:29:13;;;;;;;7.40;2.40;;;12.00;99.90;;;;;;4982046;28;20227;-60
2023/10/04 03:31:42;;;;;;;8.63;3.00;;;12.10;99.90;;;;;;4979100;28;20231;-60
2023/10/04 03:34:12;;;;;;;9.93;2.97;;;12.00;99.90;;;;;;4983721;28;20593;-60
2023/10/04 03:36:46;;;;;;;9.40;2.80;;;12.00;99.90;;;;;;4980775;28;20215;-60
2023/10/04 03:39:16;;;;;;;6.73;2.53;;;11.90;99.90;;;;;;4979779;28;20234;-60
2023/10/04 03:41:47;;;;;;;8.43;3.40;;;11.90;99.90;;;;;;4979653;28;20226;-60
2023/10/04 03:44:16;;;;;;;11.40;3.40;;;11.90;99.90;;;;;;4977770;28;20239;-60
2023/10/04 03:46:44;;;;;;;10.47;3.10;;;11.80;99.90;;;;;;4981558;28;20253;-60
2023/10/04 03:49:19;;;;;;;10.13;2.90;;;11.80;99.90;;;;;;4980128;28;20194;-60
2023/10/04 03:51:48;;;;;;;9.70;3.30;;;11.80;99.90;;;;;;4983168;28;20222;-60
2023/10/04 03:54:17;;;;;;;13.83;3.20;;;11.80;99.90;;;;;;4980766;28;20861;-60
2023/10/04 03:56:46;;;;;;;7.63;3.03;;;11.80;99.90;;;;;;4979636;28;20223;-60
2023/10/04 03:59:16;;;;;;;10.60;2.80;;;11.80;99.90;;;;;;4982485;28;20334;-60
2023/10/04 04:01:44;;;;;;;8.07;3.23;;;11.80;99.90;;;;;;4981417;28;20225;-60
2023/10/04 04:04:17;;;;;;;12.80;3.70;;;11.70;99.90;;;;;;4981732;28;20281;-60
2023/10/04 04:06:49;;;;;;;9.23;3.40;;;11.70;99.90;;;;;;4981547;28;20749;-60
2023/10/04 04:09:19;;;;;;;5.83;3.43;;;11.80;99.90;;;;;;4980085;28;20235;-60
2023/10/04 04:11:48;;;;;;;12.07;3.77;;;11.70;99.90;;;;;;4979948;28;20250;-60
2023/10/04 04:14:19;;;;;;;9.10;4.13;;;11.70;99.90;;;;;;4980365;28;20251;-60
2023/10/04 04:16:48;;;;;;;10.40;3.23;;;11.60;99.90;;;;;;4981385;28;20252;-59
2023/10/04 04:19:19;;;;;;;14.23;4.17;;;11.60;99.90;;;;;;4979287;28;20223;-59
2023/10/04 04:21:49;;;;;;;7.87;3.30;;;11.60;99.90;;;;;;4979914;28;20289;-60
2023/10/04 04:24:17;;;;;;;8.73;3.57;;;11.60;99.90;;;;;;4982419;28;20223;-59
2023/10/04 04:26:46;;;;;;;10.53;3.30;;;11.50;99.90;;;;;;4981359;28;20226;-59
2023/10/04 04:29:17;;;;;;;8.83;3.77;;;11.50;99.90;;;;;;4981521;28;20223;-59
2023/10/04 04:31:45;;;;;;;10.30;4.07;;;11.50;99.90;;;;;;4986043;28;20246;-59
2023/10/04 04:34:15;;;;;;;8.67;3.70;;;11.50;99.90;;;;;;4963659;28;20194;-60
2023/10/04 04:36:46;;;;;;;8.63;3.73;;;11.50;99.90;;;;;;4979776;28;20227;-59
2023/10/04 04:39:18;;;;;;;7.00;3.53;;;11.40;99.90;;;;;;4980604;28;20336;-60
2023/10/04 04:41:49;;;;;;;8.83;3.40;;;11.40;99.90;;;;;;4980376;28;20227;-59
2023/10/04 04:44:23;;;;;;;10.73;3.70;;;11.40;99.90;;;;;;4980007;28;20219;-59
2023/10/04 04:46:53;;;;;;;14.80;3.93;;;11.30;99.90;;;;;;4978828;28;20739;-59
2023/10/04 04:49:22;;;;;;;9.53;3.93;;;11.30;99.90;;;;;;4978934;28;20556;-58
2023/10/04 04:51:52;;;;;;;9.90;4.00;;;11.20;99.90;;;;;;4979665;28;20213;-60
2023/10/04 04:54:20;;;;;;;11.63;3.83;;;11.20;99.90;;;;;;4982519;28;20280;-60
2023/10/04 04:56:49;;;;;;;13.30;3.50;;;11.20;99.90;;;;;;4978418;28;20241;-59
2023/10/04 04:59:21;;;;;;;10.73;3.80;;;11.10;99.90;;;;;;4982012;28;20250;-60
2023/10/04 05:01:51;;;;;;;10.47;3.80;;;11.20;99.90;;;;;;4980498;28;21461;-60
2023/10/04 05:04:22;;;;;;;11.27;3.70;;;11.20;99.90;;;;;;4979144;28;20191;-56
2023/10/04 05:06:52;;;;;;;10.83;4.03;;;11.20;99.90;;;;;;4979005;28;20278;-60
2023/10/04 05:09:20;;;;;;;10.37;3.67;;;11.10;99.90;;;;;;4979662;28;20345;-60
2023/10/04 05:11:49;;;;;;;8.03;3.97;;;11.20;99.90;;;;;;4975337;28;20231;-60
2023/10/04 05:14:18;;;;;;;9.23;3.67;;;11.20;99.90;;;;;;4981195;28;20218;-60
2023/10/04 05:16:46;;;;;;;5.87;3.57;;;11.10;99.90;;;;;;4978990;28;20222;-60
2023/10/04 05:19:15;;;;;;;9.00;3.90;;;11.10;99.90;;;;;;4983311;28;20640;-59
2023/10/04 05:21:43;;;;;;;15.53;4.03;;;11.10;99.90;;;;;;4979227;28;20666;-60
2023/10/04 05:24:13;;;;;;;5.73;3.40;;;11.00;99.90;;;;;;4980428;28;20273;-60
2023/10/04 05:26:42;;;;;;;11.07;3.00;;;11.00;99.90;;;;;;4979337;28;20270;-60
2023/10/04 05:29:12;;;;;;;8.20;3.20;;;11.10;99.90;;;;;;4979885;28;20281;-59
2023/10/04 05:31:42;;;;;;;6.93;3.73;;;11.10;99.90;;;;;;4982864;28;21054;-59
2023/10/04 05:34:11;;;;;;;11.80;3.77;;;11.10;99.90;;;;;;4982830;28;20233;-59
2023/10/04 05:36:40;;;;;;;10.37;4.00;;;11.10;99.90;;;;;;4978372;28;20597;-59
2023/10/04 05:39:11;;;;;;;12.33;3.93;;;11.10;99.90;;;;;;4979364;28;20223;-61
2023/10/04 05:41:41;;;;;;;9.77;3.93;;;11.10;99.90;;;;;;4975339;28;20297;-60
2023/10/04 05:44:09;;;;;;;12.33;3.63;;;11.10;99.90;;;;;;4978699;28;20238;-60
2023/10/04 05:46:44;;;;;;;9.30;3.30;;;11.10;99.90;;;;;;4977180;28;20237;-59
2023/10/04 05:49:13;;;;;;;6.33;3.27;;;11.10;99.90;;;;;;4982949;28;20234;-60
2023/10/04 05:51:41;;;;;;;8.27;3.60;;;11.10;99.90;;;;;;4982950;28;20310;-60
2023/10/04 05:54:10;;;;;;;7.30;3.70;;;11.10;99.90;;;;;;4981256;28;20273;-60
2023/10/04 05:56:39;;;;;;;14.73;3.80;;;11.10;99.90;;;;;;4982410;28;20222;-59
2023/10/04 05:59:10;;;;;;;11.83;4.00;;;11.00;99.90;;;;;;4983287;28;20923;-59
2023/10/04 06:01:39;;;;;;;12.57;3.60;;;11.00;99.90;;;;;;4981729;28;20329;-59
2023/10/04 06:04:10;;;;;;;7.50;3.60;;;11.10;99.90;;;;;;4986377;28;20186;-59
2023/10/04 06:06:44;;;;;;;9.17;3.77;;;11.10;99.90;;;;;;4968019;28;20219;-60
2023/10/04 06:09:26;;;;;;;12.83;4.00;;;11.10;99.90;;;;;;4982483;28;20787;-59
2023/10/04 06:11:55;;;;;;;6.30;3.50;;;11.10;99.90;;;;;;4966143;28;20283;-60
2023/10/04 06:14:26;;;;;;;9.50;3.87;;;11.10;99.90;;;;;;4980907;28;20222;-60
2023/10/04 06:16:55;;;;;;;13.93;4.10;;;11.10;99.90;;;;;;4982647;28;20313;-60
2023/10/04 06:19:25;;;;;;;11.17;3.70;;;11.10;99.90;;;;;;4972846;28;20217;-59
2023/10/04 06:21:59;;;;;;;13.33;3.87;;;11.00;99.90;;;;;;4969330;28;21019;-60
2023/10/04 06:24:27;;;;;;;10.43;3.90;;;11.10;99.90;;;;;;4980654;28;20230;-60
2023/10/04 06:26:56;;;;;;;15.07;4.83;;;11.00;99.90;;;;;;4964955;28;20277;-60
2023/10/04 06:29:27;;;;;;;5.57;3.57;;;11.00;99.90;;;;;;4983369;28;20230;-59
2023/10/04 06:31:55;;;;;;;9.23;4.07;;;11.10;99.90;;;;;;4966363;28;20231;-60
2023/10/04 06:34:24;;;;;;;12.47;4.13;;;11.10;99.90;;;;;;4980061;28;20225;-59
2023/10/04 06:36:52;;;;;;;10.63;3.63;;;11.10;99.90;;;;;;4977334;28;20202;-60
2023/10/04 06:39:22;;;;;;;13.17;3.90;;;11.10;99.90;;;;;;4986341;28;20254;-60
2023/10/04 06:41:52;;;;;;;9.53;3.83;;;11.20;99.90;;;;;;4981324;28;20234;-59
2023/10/04 06:44:22;;;;;;;11.53;4.37;;;11.20;99.90;;;;;;4987111;28;20242;-60
2023/10/04 06:46:52;;;;;;;15.43;4.10;;;11.30;99.90;;;;;;4982561;28;20796;-60
2023/10/04 06:49:21;;;;;;;12.87;3.90;;;11.40;99.90;;;;;;4984361;28;20202;-59
2023/10/04 06:51:49;;;;;;;12.10;3.50;;;11.40;99.90;;;;;;4982785;28;20195;-60
2023/10/04 06:54:17;;;;;;;8.07;3.93;;;11.40;99.90;;;;;;4982924;28;20270;-60
2023/10/04 06:56:51;;;;;;;7.90;3.80;;;11.50;99.90;;;;;;4982950;28;20222;-60
2023/10/04 06:59:19;;;;;;;7.47;3.67;;;11.50;99.90;;;;;;4984976;28;20940;-60
2023/10/04 07:01:48;;;;;;;9.17;4.00;;;11.60;99.90;;;;;;4984929;28;20231;-60
2023/10/04 07:04:18;;;;;;;11.90;4.00;;;11.70;99.90;;;;;;4982266;28;20198;-59
2023/10/04 07:06:47;;;;;;;15.93;4.50;;;11.70;99.90;;;;;;4998995;28;20217;-60
2023/10/04 07:09:15;;;;;;;16.13;4.07;;;11.80;99.90;;;;;;4998891;28;20596;-60
2023/10/04 07:11:44;;;;;;;15.17;4.10;;;11.80;99.90;;;;;;5000197;28;20250;-60
2023/10/04 07:14:12;;;;;;;12.30;3.93;;;12.00;99.90;;;;;;5002264;28;20227;-60
2023/10/04 07:16:41;;;;;;;13.40;3.90;;;12.10;99.90;;;;;;5001341;28;20230;-59
2023/10/04 07:19:11;;;;;;;15.43;4.00;;;12.20;99.90;;;;;;5002572;28;20285;-60
2023/10/04 07:21:41;;;;;;;11.73;3.90;;;12.30;99.90;;;;;;5003334;28;20449;-60
2023/10/04 07:24:12;;;;;;;8.07;3.53;;;12.50;99.90;;;;;;5004318;28;20226;-60
2023/10/04 07:26:41;;;;;;;13.30;3.93;;;12.60;99.90;;;;;;5003398;28;20766;-60
2023/10/04 07:29:09;;;;;;;11.60;4.07;;;12.70;99.90;;;;;;4999893;28;20632;-60
2023/10/04 07:31:37;;;;;;;10.90;3.60;;;12.90;99.90;;;;;;5003602;28;20262;-60
2023/10/04 07:34:06;;;;;;;11.47;4.13;;;13.00;99.90;;;;;;5006942;28;20196;-60
2023/10/04 07:36:36;;;;;;;9.93;3.87;;;13.10;99.90;;;;;;4999908;28;20215;-60
2023/10/04 07:39:06;;;;;;;9.00;3.67;;;13.20;99.90;;;;;;5001524;28;20587;-60
2023/10/04 07:41:35;;;;;;;13.90;3.90;;;13.30;99.90;;;;;;5001246;28;20336;-60
2023/10/04 07:44:05;;;;;;;12.03;3.50;;;13.30;99.90;;;;;;5002714;28;20221;-60
2023/10/04 07:46:34;;;;;;;14.93;3.67;;;13.50;99.90;;;;;;5002598;28;20241;-60
2023/10/04 07:49:03;;;;;;;15.17;3.93;;;13.50;99.90;;;;;;5000944;28;20228;-60
2023/10/04 07:51:31;;;;;;;13.23;3.80;;;13.50;99.90;;;;;;5000543;28;21944;-60
2023/10/04 07:54:00;;;;;;;12.67;3.80;;;13.60;99.90;;;;;;5003477;28;20684;-60
2023/10/04 07:56:34;;;;;;;17.40;4.20;;;13.60;99.90;;;;;;5015617;28;20216;-60
2023/10/04 07:59:02;;;;;;;14.83;4.07;;;13.70;99.90;;;;;;5004446;28;20317;-60
2023/10/04 08:01:31;;;;;;;11.63;3.40;;;13.80;99.90;;;;;;5002185;28;20301;-59
2023/10/04 08:03:59;;;;;;;8.57;3.70;;;13.90;99.90;;;;;;4994624;28;20244;-60
2023/10/04 08:06:27;;;;;;;10.70;4.00;;;14.00;99.90;;;;;;5001144;28;20881;-60
2023/10/04 08:08:57;;;;;;;12.77;3.73;;;14.10;99.90;;;;;;4989091;28;20294;-59
2023/10/04 08:11:27;;;;;;;13.50;3.93;;;14.20;99.90;;;;;;4984654;28;20234;-60
2023/10/04 08:13:57;;;;;;;8.93;3.30;;;14.40;99.90;;;;;;4983533;28;20239;-60
2023/10/04 08:16:27;;;;;;;11.90;3.73;;;14.50;99.90;;;;;;4964320;28;20195;-59
2023/10/04 08:18:56;;;;;;;9.40;3.60;;;14.60;99.90;;;;;;4983425;28;20223;-60
2023/10/04 08:21:25;;;;;;;18.00;3.87;;;14.80;99.90;;;;;;4981963;28;20220;-60
2023/10/04 08:23:54;;;;;;;15.53;3.43;;;14.90;99.90;;;;;;4985464;28;20231;-60
2023/10/04 08:26:23;;;;;;;13.07;3.90;;;15.00;99.90;;;;;;4980494;28;20272;-60
2023/10/04 08:28:51;;;;;;;12.63;3.57;;;15.00;99.90;;;;;;4982998;28;20235;-60
2023/10/04 08:31:21;;;;;;;10.13;3.90;;;15.00;99.90;;;;;;4982252;28;20205;-60
2023/10/04 08:33:50;;;;;;;8.43;3.73;;;15.00;99.90;;;;;;4982511;28;20199;-60
2023/10/04 08:36:19;;;;;;;16.10;3.33;;;15.20;99.90;;;;;;4979725;28;20217;-60
2023/10/04 08:38:48;;;;;;;13.30;3.57;;;15.40;99.90;;;;;;4982040;28;20230;-60
2023/10/04 08:41:17;;;;;;;11.37;3.90;;;15.40;99.90;;;;;;4991148;28;20646;-60
2023/10/04 08:43:45;;;;;;;12.20;3.93;;;15.50;99.90;;;;;;4980576;28;20234;-60
2023/10/04 08:46:18;;;;;;;8.03;4.00;;;15.60;99.90;;;;;;4979632;28;20280;-59
2023/10/04 08:48:53;;;;;;;9.00;3.83;;;15.70;99.90;;;;;;4982159;28;20295;-60
2023/10/04 08:51:29;;;;;;;12.77;3.87;;;15.90;99.90;;;;;;4980670;28;20587;-60
2023/10/04 08:54:09;;;;;;;16.07;3.83;;;15.90;99.90;;;;;;4977647;28;20233;-60
2023/10/04 08:56:45;;;;;;;15.43;4.17;;;16.00;99.90;;;;;;4982857;28;20341;-60
2023/10/04 08:59:14;;;;;;;9.37;3.90;;;16.10;91.70;;;;;;4994356;28;20722;-61
2023/10/04 09:01:42;;;;;;;14.23;3.43;;;16.10;94.40;;;;;;4981195;28;20222;-60
2023/10/04 09:04:13;;;;;;;14.57;3.90;;;16.30;99.00;;;;;;4983270;28;20195;-60
2023/10/04 09:06:42;;;;;;;14.13;3.47;;;16.40;95.20;;;;;;4979851;28;20235;-60
2023/10/04 09:09:15;;;;;;;8.40;3.40;;;16.40;92.50;;;;;;5009477;28;20236;-61
2023/10/04 09:11:44;;;;;;;9.33;3.40;;;16.30;93.30;;;;;;5002514;28;20313;-60
2023/10/04 09:14:14;;;;;;;14.90;4.30;;;16.40;93.40;;;;;;5001450;28;20221;-60
2023/10/04 09:16:42;;;;;;;15.77;4.10;;;16.40;93.00;;;;;;5000344;28;20219;-60
2023/10/04 09:19:17;;;;;;;16.20;4.43;;;16.50;85.30;;;;;;5004811;28;20195;-60
2023/10/04 09:21:46;;;;;;;16.63;3.77;;;16.40;89.80;;;;;;4998057;28;20332;-60
2023/10/04 09:24:16;;;;;;;13.07;3.87;;;16.40;91.40;;;;;;5001788;28;20228;-60
2023/10/04 09:26:52;;;;;;;12.53;3.83;;;16.30;92.60;;;;;;4999951;28;20234;-60
2023/10/04 09:29:30;;;;;;;9.43;3.10;;;16.40;95.00;;;;;;5017009;28;20225;-60
2023/10/04 09:31:59;;;;;;;13.90;3.90;;;16.50;94.30;;;;;;5002429;28;20312;-60
2023/10/04 09:34:30;;;;;;;13.20;3.90;;;16.50;92.90;;;;;;4990059;28;20189;-60
2023/10/04 09:36:59;;;;;;;11.57;3.47;;;16.60;88.50;;;;;;5005330;28;20637;-61
2023/10/04 09:39:31;;;;;;;9.93;3.30;;;16.70;95.10;;;;;;5006564;28;20270;-60
2023/10/04 09:42:03;;;;;;;11.97;3.60;;;16.80;90.50;;;;;;5006419;28;20634;-60
2023/10/04 09:44:35;;;;;;;10.43;3.53;;;16.90;86.50;;;;;;5006023;28;20218;-60
2023/10/04 09:47:05;;;;;;;9.57;3.30;;;17.00;87.90;;;;;;5003683;28;20217;-60
2023/10/04 09:49:37;;;;;;;15.13;4.10;;;17.10;86.50;;;;;;5001894;28;20248;-60
2023/10/04 09:52:07;;;;;;;10.87;3.73;;;17.20;81.10;;;;;;5002987;28;20193;-61
2023/10/04 09:54:36;;;;;;;13.27;3.63;;;17.20;78.50;;;;;;4999787;28;20666;-61
2023/10/04 09:57:07;;;;;;;13.37;3.83;;;17.30;83.60;;;;;;4998511;28;20616;-61
2023/10/04 09:59:37;;;;;;;11.17;4.03;;;17.40;73.20;;;;;;5005520;28;20224;-61
2023/10/04 10:02:09;;;;;;;15.53;3.70;;;17.40;67.70;;;;;;5008616;28;20257;-61
2023/10/04 10:04:44;;;;;;;7.43;3.57;;;17.40;64.60;;;;;;5002832;28;20237;-60
2023/10/04 10:07:16;;;;;;;13.40;3.63;;;17.40;70.50;;;;;;5002538;28;20212;-61
2023/10/04 10:09:57;;;;;;;8.43;3.40;;;17.60;66.30;;;;;;4986500;28;20239;-61
2023/10/04 10:12:32;;;;;;;10.77;3.43;;;17.50;30.50;;;;;;4983069;28;20229;-61
2023/10/04 10:15:04;;;;;;;10.43;3.40;;;17.50;21.90;;;;;;4982346;28;20227;-61
2023/10/04 10:17:34;;;;;;;10.33;2.87;;;17.60;1.00;;;;;;4987149;28;20231;-61
2023/10/04 10:20:05;;;;;;;10.07;3.40;;;17.50;1.00;;;;;;4982108;28;20564;-61
2023/10/04 10:22:34;;;;;;;11.47;3.00;;;17.70;1.00;;;;;;4989811;28;20330;-61
2023/10/04 10:25:14;;;;;;;8.07;3.10;;;17.80;1.00;;;;;;4983270;28;20275;-61
2023/10/04 10:27:44;;;;;;;9.77;3.03;;;18.10;1.00;;;;;;4985389;28;20557;-61
2023/10/04 10:30:16;;;;;;;10.83;3.57;;;18.10;1.00;;;;;;4981608;28;20321;-61
2023/10/04 10:32:54;;;;;;;12.57;3.70;;;18.00;1.00;;;;;;4987069;28;20234;-60
2023/10/04 10:35:52;;;;;;;14.93;3.53;;;18.10;1.00;;;;;;4982292;28;20282;-60
2023/10/04 10:38:31;;;;;;;10.73;3.43;;;18.10;1.00;;;;;;4984448;28;20227;-60
2023/10/04 10:41:00;;;;;;;10.73;3.47;;;18.20;1.00;;;;;;4988122;28;20226;-60
2023/10/04 10:43:29;;;;;;;11.17;3.30;;;18.10;1.00;;;;;;4982196;28;20190;-59
2023/10/04 10:45:59;;;;;;;18.00;3.97;;;18.10;1.00;;;;;;4983380;28;20277;-59
2023/10/04 10:48:33;;;;;;;10.37;3.20;;;18.10;1.00;;;;;;4982607;28;20227;-59
2023/10/04 10:51:05;;;;;;;10.73;3.73;;;18.10;1.00;;;;;;4981683;28;20306;-60
2023/10/04 10:53:33;;;;;;;8.60;3.40;;;18.00;1.00;;;;;;4980720;28;20233;-60
2023/10/04 10:56:03;;;;;;;13.50;4.00;;;18.00;1.00;;;;;;4985251;28;20764;-59
2023/10/04 10:58:31;;;;;;;9.03;3.23;;;17.90;1.00;;;;;;4982587;28;20195;-59
2023/10/04 11:01:01;;;;;;;14.13;3.67;;;18.00;1.00;;;;;;4985477;28;20202;-59
2023/10/04 11:03:29;;;;;;;14.00;3.53;;;18.00;1.00;;;;;;4979514;28;20691;-60
2023/10/04 11:06:00;;;;;;;13.23;3.83;;;18.00;1.00;;;;;;4983604;28;20301;-60
2023/10/04 11:08:30;;;;;;;11.23;3.80;;;18.10;1.00;;;;;;4978879;28;20253;-59
2023/10/04 11:11:00;;;;;;;9.47;3.77;;;18.10;1.00;;;;;;4994254;28;20314;-59
2023/10/04 11:13:33;;;;;;;8.30;3.60;;;18.10;1.00;;;;;;4977253;28;20246;-59
2023/10/04 11:16:07;;;;;;;12.50;3.00;;;18.10;1.00;;;;;;4978038;28;20543;-60
2023/10/04 11:18:38;;;;;;;11.10;3.27;;;18.00;1.00;;;;;;4979097;28;20703;-59
2023/10/04 11:21:07;;;;;;;7.33;3.20;;;17.90;1.00;;;;;;4979603;28;20229;-60
2023/10/04 11:23:38;;;;;;;9.20;2.73;;;17.80;1.00;;;;;;4981558;28;20231;-59
2023/10/04 11:26:08;;;;;;;15.60;3.27;;;17.90;1.00;;;;;;4983263;28;20638;-59
2023/10/04 11:28:37;;;;;;;10.27;3.00;;;17.60;1.00;;;;;;4979183;28;20721;-59
2023/10/04 11:31:06;;;;;;;12.20;3.13;;;17.50;1.00;;;;;;4980719;28;20555;-59
2023/10/04 11:33:50;;;;;;;13.17;3.23;;;17.50;1.00;;;;;;4976522;28;20232;-59
2023/10/04 11:36:23;;;;;;;9.40;3.37;;;17.40;1.00;;;;;;4964838;28;20218;-60
2023/10/04 11:38:53;;;;;;;7.20;2.93;;;17.20;1.00;;;;;;4978228;28;20734;-60
2023/10/04 11:41:28;;;;;;;11.73;3.57;;;17.10;12.50;;;;;;4979123;28;20318;-59
2023/10/04 11:44:02;;;;;;;11.40;3.20;;;17.10;22.10;;;;;;4985570;28;20728;-60
2023/10/04 11:46:58;;;;;;;6.93;2.80;;;16.90;35.60;;;;;;4984554;28;20182;-59
2023/10/04 11:49:28;;;;;;;8.00;2.97;;;16.90;25.70;;;;;;4979484;28;20224;-59
2023/10/04 11:52:01;;;;;;;6.33;2.60;;;16.90;24.10;;;;;;4960628;28;20577;-59
2023/10/04 11:54:42;;;;;;;6.10;2.53;;;16.70;28.70;;;;;;4980827;28;20322;-60
2023/10/04 11:57:11;;;;;;;11.23;3.10;;;16.70;36.40;;;;;;4980545;28;20229;-59
2023/10/04 11:59:40;;;;;;;6.23;2.67;;;16.70;47.00;;;;;;4989377;28;20229;-59
2023/10/04 12:02:10;;;;;;;8.30;2.93;;;16.80;39.60;;;;;;4976935;28;20227;-60
2023/10/04 12:04:39;;;;;;;6.57;2.63;;;16.90;53.50;;;;;;4994718;28;20327;-60
2023/10/04 12:07:08;;;;;;;8.13;2.93;;;17.10;41.10;;;;;;4981005;28;20545;-61
2023/10/04 12:09:36;;;;;;;8.43;3.10;;;17.20;48.60;;;;;;4940490;28;1253779;-61
2023/10/04 12:12:07;;;;;;;8.00;2.60;;;17.30;50.10;;;;;;4977498;28;20306;-59
2023/10/04 12:14:35;;;;;;;6.50;2.53;;;17.40;26.40;;;;;;4979650;28;20222;-58
2023/10/04 12:17:05;;;;;;;7.60;2.90;;;17.40;18.80;;;;;;4982144;28;20719;-61
2023/10/04 12:19:36;;;;;;;12.10;3.07;;;17.30;7.40;;;;;;4982512;28;20191;-60
2023/10/04 12:22:09;;;;;;;6.33;2.90;;;17.20;29.40;;;;;;4980165;28;20203;-61
2023/10/04 12:24:39;;;;;;;10.93;2.87;;;17.10;44.10;;;;;;4984672;28;20230;-59
2023/10/04 12:27:09;;;;;;;9.23;2.90;;;17.10;42.60;;;;;;4984226;28;20632;-58
2023/10/04 12:29:38;;;;;;;7.40;3.10;;;17.10;30.30;;;;;;4987549;28;20231;-59
2023/10/04 12:32:07;;;;;;;8.63;3.17;;;17.20;42.60;;;;;;4963222;28;20223;-59
2023/10/04 12:34:36;;;;;;;10.03;3.20;;;17.30;42.40;;;;;;4981164;28;20226;-59
2023/10/04 12:37:04;;;;;;;13.13;3.57;;;17.30;30.00;;;;;;4983171;28;20308;-60
2023/10/04 12:39:38;;;;;;;7.13;2.90;;;17.30;23.10;;;;;;4980045;28;20218;-60
2023/10/04 12:42:08;;;;;;;8.67;2.70;;;17.30;14.70;;;;;;4982856;28;20226;-60
2023/10/04 12:44:37;;;;;;;8.50;3.17;;;17.20;11.70;;;;;;4975499;28;20699;-59
2023/10/04 12:47:08;;;;;;;6.83;2.73;;;17.20;11.40;;;;;;4979374;28;20222;-60
2023/10/04 12:49:37;;;;;;;8.87;3.20;;;17.20;16.10;;;;;;4983927;28;20575;-60
2023/10/04 12:52:07;;;;;;;6.87;2.90;;;17.20;2.30;;;;;;4979855;28;20223;-60
2023/10/04 12:54:36;;;;;;;9.97;3.40;;;17.20;14.60;;;;;;4977449;28;20227;-60
2023/10/04 12:57:04;;;;;;;11.53;3.10;;;17.30;1.00;;;;;;4979395;28;20309;-59
2023/10/04 12:59:34;;;;;;;6.90;2.90;;;17.40;13.10;;;;;;4981221;28;20207;-60